Time;durP1;ratioP1;P1;durP2;ratioP2;P2;SDS_P1;SDS_P2;PMS_P1;PMS_P2;Temp;Humidity;BMP_temperature;BMP_pressure;BME280_temperature;BME280_humidity;BME280_pressure;Samples;Min_cycle;Max_cycle;Signal;HPM_P1;HPM_P2
2022/06/12 00:00:18;;;;;;;3.53;1.40;;;;;;;13.69;95.42;102187.88;5031471;28;20024;-77
2022/06/12 00:02:44;;;;;;;2.80;1.20;;;;;;;13.68;94.96;102187.94;5029323;28;20037;-77
2022/06/12 00:05:11;;;;;;;6.47;1.38;;;;;;;13.65;94.69;102185.38;5031011;28;20079;-77
2022/06/12 00:07:37;;;;;;;3.10;1.63;;;;;;;13.63;94.72;102188.13;5023811;28;20040;-77
2022/06/12 00:10:04;;;;;;;4.57;1.70;;;;;;;13.61;94.81;102183.78;5029270;28;20029;-77
2022/06/12 00:12:30;;;;;;;8.30;1.60;;;;;;;13.59;95.42;102186.50;5029160;28;20036;-77
2022/06/12 00:14:55;;;;;;;7.03;1.60;;;;;;;13.55;95.07;102174.22;5029400;28;20094;-77
2022/06/12 00:17:21;;;;;;;3.60;1.33;;;;;;;13.54;96.00;102177.81;5024364;28;20025;-77
2022/06/12 00:19:49;;;;;;;5.72;1.58;;;;;;;13.53;95.24;102176.06;5030835;28;20074;-77
2022/06/12 00:22:16;;;;;;;5.15;1.70;;;;;;;13.50;95.61;102173.53;5028720;28;20033;-77
2022/06/12 00:24:41;;;;;;;5.22;1.70;;;;;;;13.48;95.79;102172.69;5040351;28;20120;-77
2022/06/12 00:27:07;;;;;;;7.00;1.42;;;;;;;13.46;96.80;102164.81;5015594;28;20549;-77
2022/06/12 00:29:35;;;;;;;4.47;1.67;;;;;;;13.47;96.45;102163.00;5033779;28;20033;-77
2022/06/12 00:32:05;;;;;;;4.82;1.85;;;;;;;13.46;96.37;102163.91;5027958;28;20065;-77
2022/06/12 00:34:37;;;;;;;3.60;1.50;;;;;;;13.43;96.80;102160.44;5029890;28;20111;-77
2022/06/12 00:37:04;;;;;;;3.85;1.73;;;;;;;13.43;96.89;102159.53;5024622;28;20044;-77
2022/06/12 00:39:32;;;;;;;6.55;1.77;;;;;;;13.39;97.21;102156.13;5011952;28;20033;-77
2022/06/12 00:42:00;;;;;;;4.32;1.30;;;;;;;13.39;96.64;102147.25;5030753;28;20497;-77
2022/06/12 00:44:30;;;;;;;6.95;1.80;;;;;;;13.38;97.32;102151.75;5030513;28;20064;-78
2022/06/12 00:46:59;;;;;;;7.38;1.95;;;;;;;13.37;97.21;102158.00;5028264;28;20350;-77
2022/06/12 00:49:26;;;;;;;6.93;1.33;;;;;;;13.38;97.55;102146.41;5030603;28;20033;-76
2022/06/12 00:52:04;;;;;;;6.72;1.70;;;;;;;13.37;97.83;102150.00;5027599;28;20032;-77
2022/06/12 00:54:30;;;;;;;5.20;1.45;;;;;;;13.35;98.40;102146.50;5024611;28;20472;-77
2022/06/12 00:56:57;;;;;;;4.60;1.83;;;;;;;13.34;98.30;102141.28;5044844;28;20052;-77
2022/06/12 00:59:34;;;;;;;3.72;1.42;;;;;;;13.31;98.83;102140.44;5040812;28;20041;-77
2022/06/12 01:02:00;;;;;;;6.00;1.58;;;;;;;13.29;99.01;102141.44;5028538;28;20180;-77
2022/06/12 01:07:14;;;;;;;5.88;1.95;;;;;;;13.25;99.41;102134.50;5029614;28;20112;-77
2022/06/12 01:09:42;;;;;;;10.02;2.05;;;;;;;13.23;99.61;102133.69;5028821;28;20029;-77
2022/06/12 01:12:10;;;;;;;5.05;2.08;;;;;;;13.21;99.60;102139.06;5023599;28;20056;-77
2022/06/12 01:14:41;;;;;;;3.78;1.60;;;;;;;13.16;100.00;102136.56;5039658;28;20488;-77
2022/06/12 01:17:08;;;;;;;6.30;1.95;;;;;;;13.13;100.00;102141.13;5033358;28;20509;-77
2022/06/12 01:19:37;;;;;;;7.43;2.20;;;;;;;13.08;100.00;102135.09;5028376;28;20026;-77
2022/06/12 01:22:24;;;;;;;6.15;2.15;;;;;;;13.06;100.00;102135.13;5023696;28;20655;-77
2022/06/12 01:25:20;;;;;;;7.07;1.95;;;;;;;13.02;100.00;102133.53;5029517;28;20753;-77
2022/06/12 01:28:22;;;;;;;5.25;1.80;;;;;;;12.96;100.00;102131.94;5039795;28;20051;-77
2022/06/12 01:31:02;;;;;;;5.13;1.90;;;;;;;12.93;100.00;102134.72;5029816;28;20044;-76
2022/06/12 01:33:47;;;;;;;4.55;2.35;;;;;;;12.89;100.00;102133.97;5012716;28;20299;-76
2022/06/12 01:36:25;;;;;;;5.95;1.83;;;;;;;12.88;100.00;102142.84;5023715;28;20053;-77
2022/06/12 01:38:56;;;;;;;3.38;1.95;;;;;;;12.83;100.00;102134.16;5028995;28;20029;-77
2022/06/12 01:41:28;;;;;;;7.55;1.65;;;;;;;12.81;100.00;102137.78;5029647;28;20033;-77
2022/06/12 01:44:35;;;;;;;5.23;1.70;;;;;;;12.81;100.00;102129.81;5023453;28;21573;-77
2022/06/12 01:47:06;;;;;;;3.70;2.10;;;;;;;12.77;100.00;102137.03;5006003;28;20300;-77
2022/06/12 01:49:43;;;;;;;8.45;1.98;;;;;;;12.76;100.00;102133.50;5030034;28;20056;-78
2022/06/12 01:52:23;;;;;;;7.43;1.80;;;;;;;12.73;100.00;102130.06;5028083;28;20041;-77
2022/06/12 01:55:14;;;;;;;6.15;2.33;;;;;;;12.74;100.00;102137.13;5028276;28;20037;-77
2022/06/12 01:58:00;;;;;;;6.90;2.03;;;;;;;12.74;100.00;102138.00;5029313;28;20043;-77
2022/06/12 02:00:27;;;;;;;4.55;2.00;;;;;;;12.72;100.00;102126.56;5027264;28;20029;-77
2022/06/12 02:03:01;;;;;;;4.53;2.03;;;;;;;12.72;100.00;102129.22;5042324;28;20049;-78
2022/06/12 02:05:38;;;;;;;7.65;2.05;;;;;;;12.72;100.00;102131.00;5026106;28;20049;-78
2022/06/12 02:08:11;;;;;;;6.80;2.13;;;;;;;12.70;100.00;102128.38;5032969;28;20621;-78
2022/06/12 02:13:11;;;;;;;8.10;2.10;;;;;;;12.69;100.00;102134.63;5043603;28;20606;-78
2022/06/12 02:13:48;;;;;;;8.48;2.22;;;;;;;12.69;100.00;102125.81;5031816;28;20077;-79
2022/06/12 02:16:17;;;;;;;8.30;2.15;;;;;;;12.70;100.00;102127.53;5002214;28;20033;-78
2022/06/12 02:18:56;;;;;;;7.10;1.90;;;;;;;12.68;100.00;102132.88;5043179;28;20602;-78
2022/06/12 02:21:27;;;;;;;7.70;2.22;;;;;;;12.67;100.00;102123.19;5019440;28;20025;-79
2022/06/12 02:24:18;;;;;;;7.05;1.92;;;;;;;12.70;100.00;102122.22;5032636;28;20037;-78
2022/06/12 02:26:57;;;;;;;11.63;1.92;;;;;;;12.71;100.00;102130.16;5024382;28;20055;-79
2022/06/12 02:29:26;;;;;;;8.00;1.80;;;;;;;12.74;100.00;102129.16;5032590;28;20053;-78
2022/06/12 02:31:53;;;;;;;9.40;2.25;;;;;;;12.78;100.00;102130.78;5032276;28;20038;-77
2022/06/12 02:34:27;;;;;;;4.47;1.83;;;;;;;12.79;100.00;102115.72;5030284;28;20481;-78
2022/06/12 02:36:57;;;;;;;5.55;1.90;;;;;;;12.81;100.00;102121.84;5031330;28;20438;-78
2022/06/12 02:39:26;;;;;;;8.05;2.05;;;;;;;12.84;100.00;102121.72;5031202;28;20403;-78
2022/06/12 02:42:16;;;;;;;5.72;1.73;;;;;;;12.84;100.00;102124.38;5019018;28;20029;-78
2022/06/12 02:44:49;;;;;;;10.65;2.00;;;;;;;12.87;100.00;102129.63;5030538;28;20071;-78
2022/06/12 02:47:22;;;;;;;4.25;1.77;;;;;;;12.88;100.00;102121.59;5009513;28;20037;-78
2022/06/12 02:49:50;;;;;;;10.57;2.17;;;;;;;12.90;100.00;102119.75;5030821;28;20024;-78
2022/06/12 02:52:42;;;;;;;8.50;1.95;;;;;;;12.91;100.00;102117.94;5046941;28;20113;-77
2022/06/12 02:55:32;;;;;;;7.85;1.67;;;;;;;12.94;100.00;102111.66;5026735;28;20045;-78
2022/06/12 02:58:20;;;;;;;6.70;1.67;;;;;;;12.96;100.00;102121.31;5032137;28;20044;-78
2022/06/12 03:01:07;;;;;;;8.50;1.80;;;;;;;12.97;100.00;102108.91;5012763;28;20174;-78
2022/06/12 03:03:53;;;;;;;8.23;1.75;;;;;;;12.99;100.00;102117.66;5032267;28;20772;-79
2022/06/12 03:06:19;;;;;;;6.95;1.73;;;;;;;13.01;100.00;102115.81;5031148;28;20428;-78
2022/06/12 03:08:48;;;;;;;5.35;1.85;;;;;;;13.04;100.00;102113.06;5042518;28;20036;-78
2022/06/12 03:11:25;;;;;;;6.82;1.80;;;;;;;13.06;100.00;102108.56;5041861;28;20037;-78
2022/06/12 03:13:53;;;;;;;6.15;2.05;;;;;;;13.10;100.00;102099.56;5028513;28;20032;-77
2022/06/12 03:16:23;;;;;;;6.05;1.80;;;;;;;13.13;100.00;102109.22;5032049;28;20038;-78
2022/06/12 03:18:54;;;;;;;11.40;2.05;;;;;;;13.15;100.00;102113.56;5008399;28;20602;-77
2022/06/12 03:21:35;;;;;;;9.48;2.20;;;;;;;13.18;100.00;102112.56;5042731;28;20063;-79
2022/06/12 03:24:26;;;;;;;12.15;2.10;;;;;;;13.22;100.00;102113.31;5029556;28;20079;-78
2022/06/12 03:27:05;;;;;;;11.45;2.40;;;;;;;13.23;100.00;102115.06;5031797;28;20162;-79
2022/06/12 03:29:44;;;;;;;5.10;1.83;;;;;;;13.26;100.00;102125.59;5029561;28;20032;-78
2022/06/12 03:32:19;;;;;;;8.98;2.00;;;;;;;13.27;100.00;102125.53;5031818;28;20091;-78
2022/06/12 03:35:10;;;;;;;10.52;2.53;;;;;;;13.29;100.00;102123.69;5031107;28;20040;-78
2022/06/12 03:37:40;;;;;;;9.77;2.22;;;;;;;13.30;100.00;102127.22;5025739;28;20513;-78
2022/06/12 03:40:11;;;;;;;7.47;2.13;;;;;;;13.30;100.00;102127.22;5030151;28;20036;-78
2022/06/12 03:42:51;;;;;;;14.27;2.42;;;;;;;13.31;100.00;102123.63;5029907;28;20045;-78
2022/06/12 03:45:29;;;;;;;7.50;2.40;;;;;;;13.30;100.00;102128.06;5029950;28;20182;-78
2022/06/12 03:48:45;;;;;;;7.72;2.15;;;;;;;13.29;100.00;102122.81;5013078;28;20033;-78
2022/06/12 03:51:11;;;;;;;10.07;2.15;;;;;;;13.28;100.00;102134.38;4986051;28;20051;-78
2022/06/12 03:53:58;;;;;;;8.35;2.03;;;;;;;13.28;100.00;102132.59;5016607;28;20057;-78
2022/06/12 03:59:47;;;;;;;7.07;1.92;;;;;;;13.27;100.00;102128.19;5030800;28;20049;-77
2022/06/12 04:02:17;;;;;;;9.63;2.22;;;;;;;13.28;100.00;102121.94;5040848;28;20024;-77
2022/06/12 04:04:44;;;;;;;8.30;1.92;;;;;;;13.29;100.00;102125.50;5029202;28;20056;-78
2022/06/12 04:07:12;;;;;;;10.15;2.42;;;;;;;13.30;100.00;102116.59;5029919;28;20032;-77
2022/06/12 04:09:41;;;;;;;7.38;2.25;;;;;;;13.32;100.00;102114.72;5029412;28;20036;-78
2022/06/12 04:12:22;;;;;;;5.70;2.03;;;;;;;13.35;100.00;102121.72;5025024;28;20032;-79
2022/06/12 04:15:01;;;;;;;6.70;2.63;;;;;;;13.37;100.00;102118.09;5008543;28;20036;-78
2022/06/12 04:17:28;;;;;;;9.82;1.80;;;;;;;13.40;100.00;102123.28;5030528;28;20147;-78
2022/06/12 04:19:59;;;;;;;9.55;2.63;;;;;;;13.43;100.00;102120.53;5040760;28;20052;-78
2022/06/12 04:22:54;;;;;;;7.50;2.28;;;;;;;13.47;100.00;102117.78;5030399;28;20040;-78
2022/06/12 04:25:32;;;;;;;12.48;2.20;;;;;;;13.52;100.00;102131.78;5030499;28;20063;-78
2022/06/12 04:27:57;;;;;;;17.08;2.50;;;;;;;13.55;100.00;102121.88;5017461;28;20326;-79
2022/06/12 04:30:27;;;;;;;7.95;2.80;;;;;;;13.60;100.00;102116.38;5029967;28;20104;-78
2022/06/12 04:33:22;;;;;;;9.82;2.50;;;;;;;13.66;100.00;102120.59;5040469;28;20699;-78
2022/06/12 04:35:52;;;;;;;17.50;2.95;;;;;;;13.71;100.00;102122.16;5024717;28;20548;-78
2022/06/12 04:38:18;;;;;;;9.30;2.20;;;;;;;13.78;100.00;102128.09;5012942;28;20021;-78
2022/06/12 04:40:43;;;;;;;9.63;2.25;;;;;;;13.87;100.00;102129.56;5024629;28;20032;-78
2022/06/12 04:43:09;;;;;;;13.38;2.88;;;;;;;13.94;100.00;102123.06;5041642;28;20035;-78
2022/06/12 04:45:34;;;;;;;8.48;2.60;;;;;;;14.04;100.00;102123.56;5030545;28;20115;-78
2022/06/12 04:48:00;;;;;;;7.18;2.40;;;;;;;14.12;100.00;102125.94;5040424;28;20032;-78
2022/06/12 04:50:25;;;;;;;11.40;2.80;;;;;;;14.16;100.00;102132.00;5029165;28;20025;-78
2022/06/12 04:52:51;;;;;;;10.88;2.85;;;;;;;14.19;100.00;102123.88;5033622;28;20033;-78
2022/06/12 04:55:16;;;;;;;9.18;3.13;;;;;;;14.21;100.00;102128.22;5027568;28;20488;-79
2022/06/12 04:57:42;;;;;;;7.60;2.90;;;;;;;14.22;100.00;102127.28;5010514;28;20152;-78
2022/06/12 05:00:09;;;;;;;6.60;2.45;;;;;;;14.26;100.00;102128.00;5027284;28;20033;-78
2022/06/12 05:02:34;;;;;;;9.88;2.63;;;;;;;14.29;100.00;102119.91;5023505;28;20049;-78
2022/06/12 05:05:00;;;;;;;10.38;2.45;;;;;;;14.35;100.00;102124.13;5006947;28;20060;-78
2022/06/12 05:07:25;;;;;;;16.08;2.90;;;;;;;14.45;100.00;102127.28;5041367;28;20696;-78
2022/06/12 05:09:51;;;;;;;10.48;2.95;;;;;;;14.53;100.00;102125.16;5040701;28;20572;-79
2022/06/12 05:12:17;;;;;;;12.93;2.80;;;;;;;14.62;100.00;102118.56;5040439;28;20218;-78
2022/06/12 05:14:42;;;;;;;12.25;3.00;;;;;;;14.76;100.00;102124.22;5029932;28;20511;-78
2022/06/12 05:17:13;;;;;;;9.57;2.72;;;;;;;14.93;100.00;102125.28;5023799;28;20116;-78
2022/06/12 05:19:40;;;;;;;15.38;2.90;;;;;;;15.12;100.00;102129.78;5029072;28;20563;-78
2022/06/12 05:22:08;;;;;;;9.35;2.70;;;;;;;15.30;100.00;102120.97;5030040;28;20037;-78
2022/06/12 05:24:34;;;;;;;7.55;2.72;;;;;;;15.48;100.00;102123.75;5024011;28;20415;-78
2022/06/12 05:27:01;;;;;;;11.35;2.97;;;;;;;15.61;100.00;102124.91;5028009;28;20041;-78
2022/06/12 05:29:30;;;;;;;8.88;3.10;;;;;;;15.79;100.00;102129.47;5024210;28;20039;-78
2022/06/12 05:31:56;;;;;;;14.98;3.25;;;;;;;15.88;100.00;102137.03;5028817;28;21091;-78
2022/06/12 05:34:22;;;;;;;10.60;2.80;;;;;;;15.99;100.00;102140.09;5013831;28;20036;-78
2022/06/12 05:36:48;;;;;;;9.43;2.47;;;;;;;16.11;100.00;102138.63;5041850;28;20027;-78
2022/06/12 05:39:14;;;;;;;12.20;3.72;;;;;;;16.14;100.00;102141.13;5044378;28;20029;-78
2022/06/12 05:41:40;;;;;;;12.48;2.80;;;;;;;16.27;100.00;102141.44;5044026;28;21608;-78
2022/06/12 05:44:06;;;;;;;11.93;2.70;;;;;;;16.43;100.00;102129.97;5043820;28;20055;-79
2022/06/12 05:46:32;;;;;;;10.48;3.00;;;;;;;16.54;100.00;102129.41;5044574;28;20045;-78
2022/06/12 05:48:57;;;;;;;9.23;2.42;;;;;;;16.64;100.00;102124.47;5026866;28;20044;-78
2022/06/12 05:51:23;;;;;;;12.13;2.22;;;;;;;16.79;100.00;102133.53;5017477;28;20441;-80
2022/06/12 05:53:48;;;;;;;8.95;2.65;;;;;;;16.90;100.00;102124.94;5031991;28;20543;-78
2022/06/12 05:56:20;;;;;;;11.90;3.22;;;;;;;17.04;100.00;102132.25;5033717;28;20504;-78
2022/06/12 05:58:46;;;;;;;10.07;3.15;;;;;;;17.18;100.00;102129.75;5033638;28;20065;-78
2022/06/12 06:01:14;;;;;;;10.02;2.80;;;;;;;17.33;100.00;102132.56;5032228;28;20203;-78
2022/06/12 06:03:40;;;;;;;6.95;2.13;;;;;;;17.43;100.00;102144.47;5043375;28;20046;-78
2022/06/12 06:06:06;;;;;;;8.25;2.72;;;;;;;17.47;100.00;102140.69;5019639;28;20103;-78
2022/06/12 06:08:32;;;;;;;10.70;2.78;;;;;;;17.60;100.00;102130.16;5044699;28;20040;-78
2022/06/12 06:10:58;;;;;;;11.65;2.95;;;;;;;17.76;100.00;102129.34;5033453;28;20387;-79
2022/06/12 06:13:23;;;;;;;6.50;2.67;;;;;;;17.89;100.00;102141.09;5036524;28;20029;-78
2022/06/12 06:15:50;;;;;;;8.95;2.60;;;;;;;18.00;100.00;102137.81;5032959;28;20120;-78
2022/06/12 06:18:17;;;;;;;9.48;3.35;;;;;;;18.11;100.00;102139.03;5033198;28;20055;-78
2022/06/12 06:20:42;;;;;;;7.85;2.60;;;;;;;18.18;100.00;102140.41;5033061;28;20184;-78
2022/06/12 06:23:08;;;;;;;11.38;3.17;;;;;;;18.37;100.00;102142.03;5032288;28;20479;-78
2022/06/12 06:25:34;;;;;;;8.93;2.85;;;;;;;18.44;100.00;102146.97;5044065;28;20138;-78
2022/06/12 06:28:01;;;;;;;6.10;2.10;;;;;;;18.64;100.00;102146.72;5033273;28;20059;-78
2022/06/12 06:30:27;;;;;;;5.45;1.95;;;;;;;18.82;99.58;102151.00;5032645;28;20659;-78
2022/06/12 06:32:53;;;;;;;5.40;2.20;;;;;;;18.90;97.26;102149.69;5043250;28;20033;-78
2022/06/12 06:35:19;;;;;;;9.32;2.50;;;;;;;18.85;95.38;102141.91;5016832;28;20530;-79
2022/06/12 06:37:45;;;;;;;9.40;2.30;;;;;;;18.90;95.08;102147.00;5032842;28;20029;-77
2022/06/12 06:40:13;;;;;;;10.65;2.17;;;;;;;18.99;94.41;102146.41;5031276;28;20404;-78
2022/06/12 06:42:39;;;;;;;10.63;2.40;;;;;;;18.93;91.05;102139.63;5032097;28;20422;-78
2022/06/12 06:47:49;;;;;;;5.22;1.80;;;;;;;18.90;93.12;102144.31;5032251;28;20138;-78
2022/06/12 06:50:16;;;;;;;5.30;2.08;;;;;;;18.92;88.61;102142.38;5032441;28;20448;-78
2022/06/12 06:52:42;;;;;;;5.22;1.70;;;;;;;18.99;90.48;102146.41;5031127;28;20029;-79
2022/06/12 06:55:08;;;;;;;5.63;1.90;;;;;;;19.20;90.92;102143.41;5032068;28;20385;-78
2022/06/12 06:57:39;;;;;;;8.13;1.90;;;;;;;19.30;85.10;102152.63;5032632;28;20059;-81
2022/06/12 07:00:07;;;;;;;5.13;1.55;;;;;;;19.35;86.23;102157.72;5030332;28;20025;-78
2022/06/12 07:02:33;;;;;;;7.07;2.00;;;;;;;19.47;86.68;102156.06;5025851;28;20104;-78
2022/06/12 07:04:58;;;;;;;7.60;2.10;;;;;;;19.64;87.07;102158.56;5025732;28;20033;-78
2022/06/12 07:07:24;;;;;;;6.05;1.70;;;;;;;19.69;84.18;102160.97;5031857;28;20040;-78
2022/06/12 07:09:49;;;;;;;5.97;1.38;;;;;;;19.92;85.42;102159.50;5042454;28;20291;-80
2022/06/12 07:12:14;;;;;;;3.42;1.45;;;;;;;20.13;84.60;102153.72;5041955;28;20024;-80
2022/06/12 07:14:40;;;;;;;4.45;1.52;;;;;;;20.18;82.82;102156.97;5032860;28;20509;-79
2022/06/12 07:17:06;;;;;;;3.10;1.35;;;;;;;20.14;81.96;102154.53;5031443;28;20032;-80
2022/06/12 07:19:32;;;;;;;5.90;1.63;;;;;;;20.10;80.79;102155.72;5032566;28;20036;-78
2022/06/12 07:21:58;;;;;;;2.92;1.33;;;;;;;20.14;82.52;102155.41;5031890;28;20060;-81
2022/06/12 07:24:24;;;;;;;4.43;2.35;;;;;;;20.17;82.39;102154.38;5034789;28;20111;-78
2022/06/12 07:26:49;;;;;;;3.63;1.50;;;;;;;20.14;82.21;102160.81;5032718;28;20064;-79
2022/06/12 07:29:17;;;;;;;6.07;1.80;;;;;;;20.20;82.31;102155.03;5029856;28;20486;-79
2022/06/12 07:31:43;;;;;;;6.18;1.80;;;;;;;20.22;79.01;102158.47;5018458;28;20102;-78
2022/06/12 07:34:12;;;;;;;4.30;1.50;;;;;;;20.20;80.53;102157.72;5032097;28;20061;-78
2022/06/12 07:36:37;;;;;;;4.82;1.30;;;;;;;20.27;75.71;102165.38;5031554;28;20060;-81
2022/06/12 07:39:06;;;;;;;3.13;1.38;;;;;;;20.28;78.44;102164.41;5030314;28;20468;-78
2022/06/12 07:41:32;;;;;;;4.53;1.77;;;;;;;20.42;77.79;102163.50;5012351;28;20389;-77
2022/06/12 07:43:57;;;;;;;6.47;1.83;;;;;;;20.48;76.56;102157.69;5027282;28;20075;-78
2022/06/12 07:46:23;;;;;;;4.50;1.60;;;;;;;20.56;77.61;102159.88;5030877;28;20154;-78
2022/06/12 07:48:48;;;;;;;6.15;1.70;;;;;;;20.61;76.84;102160.44;5031736;28;20044;-80
2022/06/12 07:51:18;;;;;;;3.97;1.40;;;;;;;20.76;76.79;102161.22;5027509;28;20177;-79
2022/06/12 07:53:45;;;;;;;4.03;1.40;;;;;;;20.79;76.71;102161.00;5046432;28;20142;-78
2022/06/12 07:56:11;;;;;;;3.88;1.50;;;;;;;20.76;74.88;102167.44;5025896;28;20550;-81
2022/06/12 07:58:37;;;;;;;5.18;1.50;;;;;;;20.77;75.06;102165.63;5025809;28;20033;-78
2022/06/12 08:01:06;;;;;;;1.67;1.10;;;;;;;20.79;74.96;102161.00;5024366;28;20134;-77
2022/06/12 08:03:32;;;;;;;2.45;1.17;;;;;;;20.89;74.12;102166.66;5029659;28;20389;-79
2022/06/12 08:05:58;;;;;;;4.88;1.35;;;;;;;20.97;74.78;102168.81;5041789;28;20047;-78
2022/06/12 08:08:24;;;;;;;7.47;1.20;;;;;;;21.13;73.25;102174.00;5031193;28;20042;-78
2022/06/12 08:10:50;;;;;;;3.50;1.35;;;;;;;21.18;73.26;102177.22;5040981;28;20051;-79
2022/06/12 08:13:16;;;;;;;3.88;1.08;;;;;;;21.16;72.06;102180.03;5024081;28;20037;-79
2022/06/12 08:15:46;;;;;;;1.55;1.13;;;;;;;21.15;71.77;102180.13;5029304;28;20068;-78
2022/06/12 08:18:13;;;;;;;3.78;1.08;;;;;;;21.12;71.66;102183.03;5041525;28;20116;-78
2022/06/12 08:20:42;;;;;;;3.83;1.10;;;;;;;21.18;70.11;102182.59;5042357;28;20045;-79
2022/06/12 08:23:27;;;;;;;3.20;1.27;;;;;;;21.20;70.55;102178.00;5008369;28;20112;-78
2022/06/12 08:26:12;;;;;;;3.72;1.20;;;;;;;21.37;68.48;102181.31;5017921;28;20212;-79
2022/06/12 08:28:41;;;;;;;3.08;1.30;;;;;;;21.42;66.28;102179.16;5046833;28;20096;-78
2022/06/12 08:31:10;;;;;;;2.72;0.98;;;;;;;21.49;67.92;102180.44;5006704;28;20083;-78
2022/06/12 08:33:38;;;;;;;3.08;1.25;;;;;;;21.57;69.53;102177.19;5031088;28;20041;-79
2022/06/12 08:36:05;;;;;;;3.35;1.48;;;;;;;21.60;69.41;102181.50;5029951;28;20033;-80
2022/06/12 08:38:30;;;;;;;2.97;1.30;;;;;;;21.63;68.86;102192.06;5031141;28;20025;-78
2022/06/12 08:41:33;;;;;;;4.13;1.33;;;;;;;21.78;67.51;102184.75;5041296;28;20166;-77
2022/06/12 08:44:05;;;;;;;3.92;1.23;;;;;;;21.97;67.96;102192.34;5030750;28;20475;-79
2022/06/12 08:46:43;;;;;;;4.88;1.50;;;;;;;21.96;68.69;102194.19;5031874;28;20123;-78
2022/06/12 08:49:43;;;;;;;2.80;1.00;;;;;;;21.84;64.06;102195.94;5032274;28;20041;-81
2022/06/12 08:52:19;;;;;;;3.60;1.10;;;;;;;21.76;65.70;102194.75;5021348;28;21720;-79
2022/06/12 08:54:58;;;;;;;2.55;1.00;;;;;;;21.68;66.65;102190.75;5025598;28;20571;-78
2022/06/12 08:57:34;;;;;;;3.30;1.00;;;;;;;21.69;65.14;102181.72;5031812;28;20035;-79
2022/06/12 09:00:05;;;;;;;4.20;1.10;;;;;;;21.71;66.50;102187.03;5029355;28;20035;-78
2022/06/12 09:02:36;;;;;;;2.65;1.25;;;;;;;21.84;62.66;102182.47;5030455;28;20087;-79
2022/06/12 09:05:06;;;;;;;2.00;1.52;;;;;;;21.70;65.20;102185.31;5040716;28;20044;-82
2022/06/12 09:08:09;;;;;;;4.00;1.50;;;;;;;21.64;58.18;102180.31;5024185;28;20563;-82
2022/06/12 09:10:40;;;;;;;3.25;1.17;;;;;;;21.65;64.58;102179.34;5017381;28;20052;-78
2022/06/12 09:13:20;;;;;;;3.50;1.42;;;;;;;21.58;62.72;102182.47;5033896;28;20025;-80
2022/06/12 09:16:06;;;;;;;4.05;1.58;;;;;;;21.43;64.81;102180.88;5045605;28;20073;-79
2022/06/12 09:18:49;;;;;;;3.53;1.30;;;;;;;21.16;61.80;102174.66;5027913;28;20061;-79
2022/06/12 09:21:36;;;;;;;3.05;1.35;;;;;;;21.05;63.44;102176.34;5034338;28;20041;-77
2022/06/12 09:24:17;;;;;;;3.10;1.30;;;;;;;21.10;64.35;102176.91;5031956;28;20487;-78
2022/06/12 09:27:11;;;;;;;3.53;1.35;;;;;;;21.05;65.04;102177.22;5034920;28;20044;-79
2022/06/12 09:30:08;;;;;;;2.58;1.30;;;;;;;21.15;64.28;102172.91;5027651;28;20147;-77
2022/06/12 09:32:45;;;;;;;2.40;1.40;;;;;;;21.10;64.72;102174.19;5034252;28;20492;-81
2022/06/12 09:35:26;;;;;;;4.95;1.25;;;;;;;21.06;63.20;102169.97;5034143;28;20037;-78
2022/06/12 09:38:24;;;;;;;3.20;1.10;;;;;;;21.08;63.31;102173.47;5033952;28;20392;-79
2022/06/12 09:41:08;;;;;;;3.33;1.38;;;;;;;21.10;62.05;102163.44;5022464;28;20140;-77
2022/06/12 09:43:40;;;;;;;3.20;1.08;;;;;;;21.14;63.22;102170.34;5026544;28;20112;-77
2022/06/12 09:46:22;;;;;;;3.70;1.77;;;;;;;21.14;62.53;102170.34;5044005;28;20041;-77
2022/06/12 09:49:06;;;;;;;2.55;1.20;;;;;;;21.23;62.20;102167.00;5031752;28;20508;-77
2022/06/12 09:51:45;;;;;;;3.38;1.50;;;;;;;21.39;62.99;102173.97;5033683;28;20048;-77
2022/06/12 09:54:17;;;;;;;6.20;1.30;;;;;;;21.42;62.31;102169.22;5027360;28;20047;-77
2022/06/12 09:57:01;;;;;;;;;;;;;;;21.49;59.63;102163.41;5034123;28;20037;-77
2022/06/12 09:59:38;;;;;;;6.78;1.73;;;;;;;21.55;62.16;102158.47;5061166;28;19956;-77
2022/06/12 10:02:32;;;;;;;4.50;1.20;;;;;;;21.51;59.55;102159.63;5043452;28;20387;-81
2022/06/12 10:05:28;;;;;;;3.53;1.20;;;;;;;21.38;60.37;102164.19;5029737;28;20061;-76
2022/06/12 10:07:57;;;;;;;2.10;1.10;;;;;;;21.18;61.11;102171.81;5024059;28;20056;-79
2022/06/12 10:10:26;;;;;;;3.03;1.20;;;;;;;20.92;61.75;102162.88;5010454;28;20128;-78
2022/06/12 10:12:58;;;;;;;3.72;1.30;;;;;;;20.83;62.52;102167.91;5032492;28;20296;-78
2022/06/12 10:15:27;;;;;;;3.97;1.42;;;;;;;20.66;62.87;102173.56;5031131;28;20048;-77
2022/06/12 10:17:59;;;;;;;3.00;1.38;;;;;;;20.63;62.92;102174.63;5033635;28;20039;-77
2022/06/12 10:20:32;;;;;;;4.53;1.30;;;;;;;20.68;59.17;102168.94;5047693;28;20128;-81
2022/06/12 10:22:59;;;;;;;3.92;1.20;;;;;;;20.68;61.21;102175.19;5030956;28;20037;-78
2022/06/12 10:25:27;;;;;;;4.13;1.40;;;;;;;20.85;62.89;102174.06;5031659;28;20135;-78
2022/06/12 10:28:04;;;;;;;4.53;1.30;;;;;;;20.74;61.74;102174.78;5033104;28;20040;-78
2022/06/12 10:30:35;;;;;;;2.47;1.40;;;;;;;20.80;62.56;102178.03;5043830;28;20036;-78
2022/06/12 10:33:31;;;;;;;4.32;1.42;;;;;;;20.87;61.46;102179.34;5032285;28;20152;-79
2022/06/12 10:35:58;;;;;;;3.33;1.20;;;;;;;20.85;62.53;102173.19;5029772;28;20132;-81
2022/06/12 10:38:27;;;;;;;4.10;1.48;;;;;;;20.79;61.87;102176.28;5035651;28;21850;-81
2022/06/12 10:40:56;;;;;;;3.30;1.38;;;;;;;20.77;61.93;102176.41;5031935;28;20119;-84
2022/06/12 10:43:29;;;;;;;5.47;1.38;;;;;;;20.74;62.51;102177.47;5030087;28;20041;-78
2022/06/12 10:46:03;;;;;;;2.08;1.17;;;;;;;20.66;60.49;102174.44;5035635;28;20033;-80
2022/06/12 10:48:31;;;;;;;3.15;1.55;;;;;;;20.59;59.14;102165.06;4993558;28;20400;-79
2022/06/12 10:50:59;;;;;;;3.72;1.30;;;;;;;20.46;61.71;102165.88;5010314;28;20060;-83
2022/06/12 10:53:28;;;;;;;4.50;1.50;;;;;;;20.39;61.58;102175.31;5036339;28;20029;-78
2022/06/12 10:56:08;;;;;;;2.83;1.13;;;;;;;20.28;61.53;102178.72;5031588;28;20032;-80
2022/06/12 10:58:34;;;;;;;3.53;1.52;;;;;;;20.27;62.74;102171.59;5037808;28;20044;-80
2022/06/12 11:01:05;;;;;;;2.15;1.25;;;;;;;20.22;62.58;102174.59;5039687;28;20029;-80
2022/06/12 11:03:46;;;;;;;3.17;1.42;;;;;;;20.16;63.00;102177.69;5034151;28;20549;-81
2022/06/12 11:07:02;;;;;;;5.15;1.55;;;;;;;20.20;63.39;102171.16;5040505;28;20080;-81
2022/06/12 11:09:50;;;;;;;2.88;1.55;;;;;;;20.13;63.32;102172.53;5036292;28;20536;-79
2022/06/12 11:12:41;;;;;;;3.08;1.48;;;;;;;20.04;62.98;102176.66;5037882;28;20124;-80
2022/06/12 11:15:25;;;;;;;7.35;1.67;;;;;;;19.91;61.85;102176.56;5036077;28;20028;-80
2022/06/12 11:18:14;;;;;;;5.10;1.55;;;;;;;19.89;61.88;102189.22;5022510;28;20032;-80
2022/06/12 11:20:50;;;;;;;4.15;1.48;;;;;;;19.85;62.33;102178.78;5035832;28;20033;-81
2022/06/12 11:23:50;;;;;;;3.70;1.30;;;;;;;19.85;60.85;102176.09;5024268;28;20041;-78
2022/06/12 11:26:22;;;;;;;4.10;1.70;;;;;;;19.90;61.73;102185.59;5032149;28;20318;-79
2022/06/12 11:29:09;;;;;;;5.03;1.65;;;;;;;19.83;60.42;102189.63;5037211;28;20021;-79
2022/06/12 11:31:53;;;;;;;3.15;1.40;;;;;;;19.85;60.65;102176.97;5049874;28;20033;-81
2022/06/12 11:34:41;;;;;;;3.22;1.42;;;;;;;19.86;61.69;102180.50;5035310;28;20108;-81
2022/06/12 11:37:09;;;;;;;1.63;1.13;;;;;;;19.74;61.48;102184.84;5043309;28;20024;-81
2022/06/12 11:39:38;;;;;;;5.72;1.40;;;;;;;19.48;61.56;102176.59;5048860;28;20083;-79
2022/06/12 11:42:20;;;;;;;2.58;1.02;;;;;;;19.44;61.26;102167.88;5039773;28;20035;-81
2022/06/12 11:44:52;;;;;;;4.65;1.40;;;;;;;19.58;62.69;102179.56;5040337;28;20250;-82
2022/06/12 11:47:25;;;;;;;2.58;1.38;;;;;;;19.59;60.75;102182.16;5023446;28;20040;-81
2022/06/12 11:50:21;;;;;;;5.20;1.13;;;;;;;19.77;60.81;102177.44;5049281;28;20039;-81
2022/06/12 11:53:21;;;;;;;3.28;1.42;;;;;;;19.87;59.61;102166.97;5038070;28;20040;-83
2022/06/12 11:55:56;;;;;;;2.58;1.10;;;;;;;19.93;60.35;102163.91;5035373;28;20056;-84
2022/06/12 11:58:43;;;;;;;2.13;1.17;;;;;;;19.82;57.54;102166.41;5039960;28;20032;-80